sensor_id;sensor_type;location;lat;lon;timestamp;temperature;humidity
4249;DHT22;8404;48.752;12.922;2022-09-09T00:01:23;14.00;98.20
4249;DHT22;8404;48.752;12.922;2022-09-09T00:03:57;14.00;98.30
4249;DHT22;8404;48.752;12.922;2022-09-09T00:06:30;14.00;98.30
4249;DHT22;8404;48.752;12.922;2022-09-09T00:09:02;14.00;98.50
4249;DHT22;8404;48.752;12.922;2022-09-09T00:11:39;14.00;98.50
4249;DHT22;8404;48.752;12.922;2022-09-09T00:14:15;13.90;98.60
4249;DHT22;8404;48.752;12.922;2022-09-09T00:16:50;13.90;98.70
4249;DHT22;8404;48.752;12.922;2022-09-09T00:19:22;13.90;98.70
4249;DHT22;8404;48.752;12.922;2022-09-09T00:22:01;13.90;98.60
4249;DHT22;8404;48.752;12.922;2022-09-09T00:24:38;13.80;98.60
4249;DHT22;8404;48.752;12.922;2022-09-09T00:27:11;13.90;98.60
4249;DHT22;8404;48.752;12.922;2022-09-09T00:29:45;13.80;98.70
4249;DHT22;8404;48.752;12.922;2022-09-09T00:32:18;13.80;98.50
4249;DHT22;8404;48.752;12.922;2022-09-09T00:34:49;13.80;98.60
4249;DHT22;8404;48.752;12.922;2022-09-09T00:37:19;13.70;98.50
4249;DHT22;8404;48.752;12.922;2022-09-09T00:39:49;13.70;98.50
4249;DHT22;8404;48.752;12.922;2022-09-09T00:42:23;13.60;98.60
4249;DHT22;8404;48.752;12.922;2022-09-09T00:44:58;13.70;98.60
4249;DHT22;8404;48.752;12.922;2022-09-09T00:47:39;13.60;98.40
4249;DHT22;8404;48.752;12.922;2022-09-09T00:50:22;13.60;98.50
4249;DHT22;8404;48.752;12.922;2022-09-09T00:53:05;13.60;98.50
4249;DHT22;8404;48.752;12.922;2022-09-09T00:55:41;13.50;98.40
4249;DHT22;8404;48.752;12.922;2022-09-09T00:58:11;13.50;98.40
4249;DHT22;8404;48.752;12.922;2022-09-09T01:00:43;13.40;98.40
4249;DHT22;8404;48.752;12.922;2022-09-09T01:03:22;13.40;98.40
4249;DHT22;8404;48.752;12.922;2022-09-09T01:06:02;13.30;98.50
4249;DHT22;8404;48.752;12.922;2022-09-09T01:11:37;13.30;98.50
4249;DHT22;8404;48.752;12.922;2022-09-09T01:14:17;13.30;98.50
4249;DHT22;8404;48.752;12.922;2022-09-09T01:16:48;13.30;98.50
4249;DHT22;8404;48.752;12.922;2022-09-09T01:19:24;13.20;98.50
4249;DHT22;8404;48.752;12.922;2022-09-09T01:22:06;13.20;98.60
4249;DHT22;8404;48.752;12.922;2022-09-09T01:24:45;13.20;98.60
4249;DHT22;8404;48.752;12.922;2022-09-09T01:27:24;13.10;98.70
4249;DHT22;8404;48.752;12.922;2022-09-09T01:29:53;13.10;98.90
4249;DHT22;8404;48.752;12.922;2022-09-09T01:32:40;13.10;98.80
4249;DHT22;8404;48.752;12.922;2022-09-09T01:35:15;13.10;99.00
4249;DHT22;8404;48.752;12.922;2022-09-09T01:37:47;13.10;99.10
4249;DHT22;8404;48.752;12.922;2022-09-09T01:40:15;13.10;99.10
4249;DHT22;8404;48.752;12.922;2022-09-09T01:42:47;13.10;99.10
4249;DHT22;8404;48.752;12.922;2022-09-09T01:45:15;13.10;99.10
4249;DHT22;8404;48.752;12.922;2022-09-09T01:47:44;13.10;99.30
4249;DHT22;8404;48.752;12.922;2022-09-09T01:50:20;13.10;99.10
4249;DHT22;8404;48.752;12.922;2022-09-09T01:52:51;13.00;99.00
4249;DHT22;8404;48.752;12.922;2022-09-09T01:55:30;13.00;98.90
4249;DHT22;8404;48.752;12.922;2022-09-09T01:58:16;13.00;98.90
4249;DHT22;8404;48.752;12.922;2022-09-09T02:01:00;13.00;98.90
4249;DHT22;8404;48.752;12.922;2022-09-09T02:03:32;13.00;99.10
4249;DHT22;8404;48.752;12.922;2022-09-09T02:06:20;12.90;99.20
4249;DHT22;8404;48.752;12.922;2022-09-09T02:09:00;12.90;99.00
4249;DHT22;8404;48.752;12.922;2022-09-09T02:11:30;12.90;99.00
4249;DHT22;8404;48.752;12.922;2022-09-09T02:14:10;12.90;99.00
4249;DHT22;8404;48.752;12.922;2022-09-09T02:16:47;12.80;98.90
4249;DHT22;8404;48.752;12.922;2022-09-09T02:19:19;12.80;99.00
4249;DHT22;8404;48.752;12.922;2022-09-09T02:22:00;12.80;99.00
4249;DHT22;8404;48.752;12.922;2022-09-09T02:24:29;12.80;99.00
4249;DHT22;8404;48.752;12.922;2022-09-09T02:27:11;12.70;98.90
4249;DHT22;8404;48.752;12.922;2022-09-09T02:29:42;12.70;99.00
4249;DHT22;8404;48.752;12.922;2022-09-09T02:32:14;12.70;99.10
4249;DHT22;8404;48.752;12.922;2022-09-09T02:34:45;12.70;99.20
4249;DHT22;8404;48.752;12.922;2022-09-09T02:37:17;12.70;99.20
4249;DHT22;8404;48.752;12.922;2022-09-09T02:39:51;12.80;99.30
4249;DHT22;8404;48.752;12.922;2022-09-09T02:42:21;12.80;99.30
4249;DHT22;8404;48.752;12.922;2022-09-09T02:44:54;12.80;99.20
4249;DHT22;8404;48.752;12.922;2022-09-09T02:47:29;12.80;99.30
4249;DHT22;8404;48.752;12.922;2022-09-09T02:50:12;12.80;99.30
4249;DHT22;8404;48.752;12.922;2022-09-09T02:52:47;12.80;99.30
4249;DHT22;8404;48.752;12.922;2022-09-09T02:55:24;12.90;99.20
4249;DHT22;8404;48.752;12.922;2022-09-09T02:57:57;12.90;99.20
4249;DHT22;8404;48.752;12.922;2022-09-09T03:00:29;12.90;99.20
4249;DHT22;8404;48.752;12.922;2022-09-09T03:03:00;12.90;99.10
4249;DHT22;8404;48.752;12.922;2022-09-09T03:05:28;12.90;99.10
4249;DHT22;8404;48.752;12.922;2022-09-09T03:07:57;13.00;99.30
4249;DHT22;8404;48.752;12.922;2022-09-09T03:10:25;13.00;99.20
4249;DHT22;8404;48.752;12.922;2022-09-09T03:12:53;13.00;99.40
4249;DHT22;8404;48.752;12.922;2022-09-09T03:15:22;13.00;99.20
4249;DHT22;8404;48.752;12.922;2022-09-09T03:17:52;13.00;99.20
4249;DHT22;8404;48.752;12.922;2022-09-09T03:20:21;13.00;99.20
4249;DHT22;8404;48.752;12.922;2022-09-09T03:22:50;13.00;99.20
4249;DHT22;8404;48.752;12.922;2022-09-09T03:25:18;13.00;99.20
4249;DHT22;8404;48.752;12.922;2022-09-09T03:27:47;13.00;99.20
4249;DHT22;8404;48.752;12.922;2022-09-09T03:30:15;12.90;99.60
4249;DHT22;8404;48.752;12.922;2022-09-09T03:32:43;12.90;99.30
4249;DHT22;8404;48.752;12.922;2022-09-09T03:35:16;13.00;99.30
4249;DHT22;8404;48.752;12.922;2022-09-09T03:37:45;12.90;99.30
4249;DHT22;8404;48.752;12.922;2022-09-09T03:40:14;12.90;99.30
4249;DHT22;8404;48.752;12.922;2022-09-09T03:42:45;12.90;99.30
4249;DHT22;8404;48.752;12.922;2022-09-09T03:45:13;12.90;99.40
4249;DHT22;8404;48.752;12.922;2022-09-09T03:47:41;12.90;99.30
4249;DHT22;8404;48.752;12.922;2022-09-09T03:50:09;12.90;99.30
4249;DHT22;8404;48.752;12.922;2022-09-09T03:52:44;12.80;99.30
4249;DHT22;8404;48.752;12.922;2022-09-09T03:55:19;12.80;99.20
4249;DHT22;8404;48.752;12.922;2022-09-09T03:57:47;12.80;99.20
4249;DHT22;8404;48.752;12.922;2022-09-09T04:00:17;12.70;99.20
4249;DHT22;8404;48.752;12.922;2022-09-09T04:02:50;12.80;99.30
4249;DHT22;8404;48.752;12.922;2022-09-09T04:05:23;12.80;99.30
4249;DHT22;8404;48.752;12.922;2022-09-09T04:07:52;12.80;99.30
4249;DHT22;8404;48.752;12.922;2022-09-09T04:10:21;12.80;99.30
4249;DHT22;8404;48.752;12.922;2022-09-09T04:12:49;12.80;99.30
4249;DHT22;8404;48.752;12.922;2022-09-09T04:15:17;12.80;99.30
4249;DHT22;8404;48.752;12.922;2022-09-09T04:17:46;12.80;99.30
4249;DHT22;8404;48.752;12.922;2022-09-09T04:20:14;12.80;99.30
4249;DHT22;8404;48.752;12.922;2022-09-09T04:22:42;12.70;99.30
4249;DHT22;8404;48.752;12.922;2022-09-09T04:25:12;12.70;99.40
4249;DHT22;8404;48.752;12.922;2022-09-09T04:27:40;12.70;99.40
4249;DHT22;8404;48.752;12.922;2022-09-09T04:30:10;12.70;99.50
4249;DHT22;8404;48.752;12.922;2022-09-09T04:32:40;12.70;99.50
4249;DHT22;8404;48.752;12.922;2022-09-09T04:35:08;12.60;99.40
4249;DHT22;8404;48.752;12.922;2022-09-09T04:37:36;12.60;99.50
4249;DHT22;8404;48.752;12.922;2022-09-09T04:40:06;12.60;99.60
4249;DHT22;8404;48.752;12.922;2022-09-09T04:42:38;12.60;99.50
4249;DHT22;8404;48.752;12.922;2022-09-09T04:45:13;12.60;99.50
4249;DHT22;8404;48.752;12.922;2022-09-09T04:47:41;12.60;99.50
4249;DHT22;8404;48.752;12.922;2022-09-09T04:50:10;12.60;99.60
4249;DHT22;8404;48.752;12.922;2022-09-09T04:52:38;12.60;99.50
4249;DHT22;8404;48.752;12.922;2022-09-09T04:55:08;12.60;99.60
4249;DHT22;8404;48.752;12.922;2022-09-09T04:57:38;12.60;99.60
4249;DHT22;8404;48.752;12.922;2022-09-09T05:00:07;12.60;99.60
4249;DHT22;8404;48.752;12.922;2022-09-09T05:02:39;12.60;99.60
4249;DHT22;8404;48.752;12.922;2022-09-09T05:05:09;12.60;99.60
4249;DHT22;8404;48.752;12.922;2022-09-09T05:07:39;12.60;99.60
4249;DHT22;8404;48.752;12.922;2022-09-09T05:10:08;12.60;99.70
4249;DHT22;8404;48.752;12.922;2022-09-09T05:12:38;12.60;99.60
4249;DHT22;8404;48.752;12.922;2022-09-09T05:15:07;12.50;99.60
4249;DHT22;8404;48.752;12.922;2022-09-09T05:17:36;12.50;99.60
4249;DHT22;8404;48.752;12.922;2022-09-09T05:20:05;12.60;99.60
4249;DHT22;8404;48.752;12.922;2022-09-09T05:22:37;12.60;99.60
4249;DHT22;8404;48.752;12.922;2022-09-09T05:25:06;12.60;99.60
4249;DHT22;8404;48.752;12.922;2022-09-09T05:27:35;12.70;99.60
4249;DHT22;8404;48.752;12.922;2022-09-09T05:30:06;12.70;99.50
4249;DHT22;8404;48.752;12.922;2022-09-09T05:32:35;12.80;99.50
4249;DHT22;8404;48.752;12.922;2022-09-09T05:35:04;12.90;99.50
4249;DHT22;8404;48.752;12.922;2022-09-09T05:37:32;13.00;99.50
4249;DHT22;8404;48.752;12.922;2022-09-09T05:40:00;13.00;99.80
4249;DHT22;8404;48.752;12.922;2022-09-09T05:42:30;13.10;99.60
4249;DHT22;8404;48.752;12.922;2022-09-09T05:44:59;13.20;99.60
4249;DHT22;8404;48.752;12.922;2022-09-09T05:47:28;13.30;99.60
4249;DHT22;8404;48.752;12.922;2022-09-09T05:49:57;13.40;99.60
4249;DHT22;8404;48.752;12.922;2022-09-09T05:52:25;13.50;99.70
4249;DHT22;8404;48.752;12.922;2022-09-09T05:54:55;13.60;99.70
4249;DHT22;8404;48.752;12.922;2022-09-09T05:57:23;13.80;99.70
4249;DHT22;8404;48.752;12.922;2022-09-09T05:59:51;13.90;99.70
4249;DHT22;8404;48.752;12.922;2022-09-09T06:02:20;14.00;99.50
4249;DHT22;8404;48.752;12.922;2022-09-09T06:04:50;14.10;99.40
4249;DHT22;8404;48.752;12.922;2022-09-09T06:07:19;14.20;99.40
4249;DHT22;8404;48.752;12.922;2022-09-09T06:09:47;14.30;99.30
4249;DHT22;8404;48.752;12.922;2022-09-09T06:12:15;14.40;99.30
4249;DHT22;8404;48.752;12.922;2022-09-09T06:14:43;14.50;99.20
4249;DHT22;8404;48.752;12.922;2022-09-09T06:17:13;14.50;99.20
4249;DHT22;8404;48.752;12.922;2022-09-09T06:19:41;14.50;99.10
4249;DHT22;8404;48.752;12.922;2022-09-09T06:22:11;14.60;99.10
4249;DHT22;8404;48.752;12.922;2022-09-09T06:24:39;14.60;99.00
4249;DHT22;8404;48.752;12.922;2022-09-09T06:27:07;14.60;99.00
4249;DHT22;8404;48.752;12.922;2022-09-09T06:29:36;14.70;99.00
4249;DHT22;8404;48.752;12.922;2022-09-09T06:32:04;14.70;99.00
4249;DHT22;8404;48.752;12.922;2022-09-09T06:34:35;14.70;99.00
4249;DHT22;8404;48.752;12.922;2022-09-09T06:37:04;14.70;99.00
4249;DHT22;8404;48.752;12.922;2022-09-09T06:39:42;14.70;99.10
4249;DHT22;8404;48.752;12.922;2022-09-09T06:42:10;14.80;99.10
4249;DHT22;8404;48.752;12.922;2022-09-09T06:44:54;14.80;99.00
4249;DHT22;8404;48.752;12.922;2022-09-09T06:47:43;14.90;99.00
4249;DHT22;8404;48.752;12.922;2022-09-09T06:50:11;14.90;98.90
4249;DHT22;8404;48.752;12.922;2022-09-09T06:52:39;15.00;98.80
4249;DHT22;8404;48.752;12.922;2022-09-09T06:55:10;15.10;98.80
4249;DHT22;8404;48.752;12.922;2022-09-09T06:57:40;15.30;98.90
4249;DHT22;8404;48.752;12.922;2022-09-09T07:00:13;15.40;98.80
4249;DHT22;8404;48.752;12.922;2022-09-09T07:02:41;15.60;98.90
4249;DHT22;8404;48.752;12.922;2022-09-09T07:05:11;15.70;98.60
4249;DHT22;8404;48.752;12.922;2022-09-09T07:07:41;15.80;98.40
4249;DHT22;8404;48.752;12.922;2022-09-09T07:10:13;15.90;98.30
4249;DHT22;8404;48.752;12.922;2022-09-09T07:12:41;16.10;98.10
4249;DHT22;8404;48.752;12.922;2022-09-09T07:15:11;16.20;97.90
4249;DHT22;8404;48.752;12.922;2022-09-09T07:17:43;16.20;97.60
4249;DHT22;8404;48.752;12.922;2022-09-09T07:20:11;16.30;97.60
4249;DHT22;8404;48.752;12.922;2022-09-09T07:22:41;16.30;97.50
4249;DHT22;8404;48.752;12.922;2022-09-09T07:25:10;16.40;97.40
4249;DHT22;8404;48.752;12.922;2022-09-09T07:27:39;16.40;97.40
4249;DHT22;8404;48.752;12.922;2022-09-09T07:30:09;16.50;97.30
4249;DHT22;8404;48.752;12.922;2022-09-09T07:32:43;16.50;96.90
4249;DHT22;8404;48.752;12.922;2022-09-09T07:35:12;16.60;96.90
4249;DHT22;8404;48.752;12.922;2022-09-09T07:37:40;16.60;96.90
4249;DHT22;8404;48.752;12.922;2022-09-09T07:40:13;16.60;96.70
4249;DHT22;8404;48.752;12.922;2022-09-09T07:42:43;16.60;96.70
4249;DHT22;8404;48.752;12.922;2022-09-09T07:45:12;16.60;96.50
4249;DHT22;8404;48.752;12.922;2022-09-09T07:47:41;16.60;96.70
4249;DHT22;8404;48.752;12.922;2022-09-09T07:50:09;16.60;96.70
4249;DHT22;8404;48.752;12.922;2022-09-09T07:52:38;16.70;96.70
4249;DHT22;8404;48.752;12.922;2022-09-09T07:55:07;16.80;96.60
4249;DHT22;8404;48.752;12.922;2022-09-09T07:57:36;16.90;96.60
4249;DHT22;8404;48.752;12.922;2022-09-09T08:00:07;17.00;96.50
4249;DHT22;8404;48.752;12.922;2022-09-09T08:02:41;17.20;96.10
4249;DHT22;8404;48.752;12.922;2022-09-09T08:05:10;17.30;95.80
4249;DHT22;8404;48.752;12.922;2022-09-09T08:07:40;17.40;95.60
4249;DHT22;8404;48.752;12.922;2022-09-09T08:10:08;17.50;95.40
4249;DHT22;8404;48.752;12.922;2022-09-09T08:12:40;17.50;95.00
4249;DHT22;8404;48.752;12.922;2022-09-09T08:15:30;17.60;95.10
4249;DHT22;8404;48.752;12.922;2022-09-09T08:17:59;17.60;95.20
4249;DHT22;8404;48.752;12.922;2022-09-09T08:20:27;17.60;95.20
4249;DHT22;8404;48.752;12.922;2022-09-09T08:22:56;17.70;95.10
4249;DHT22;8404;48.752;12.922;2022-09-09T08:25:24;17.80;95.20
4249;DHT22;8404;48.752;12.922;2022-09-09T08:27:53;17.90;94.70
4249;DHT22;8404;48.752;12.922;2022-09-09T08:30:21;18.00;94.70
4249;DHT22;8404;48.752;12.922;2022-09-09T08:32:50;18.10;94.50
4249;DHT22;8404;48.752;12.922;2022-09-09T08:35:21;18.10;94.40
4249;DHT22;8404;48.752;12.922;2022-09-09T08:37:53;18.20;94.20
4249;DHT22;8404;48.752;12.922;2022-09-09T08:40:28;18.20;93.80
4249;DHT22;8404;48.752;12.922;2022-09-09T08:42:59;18.20;93.50
4249;DHT22;8404;48.752;12.922;2022-09-09T08:45:32;18.20;93.70
4249;DHT22;8404;48.752;12.922;2022-09-09T08:48:29;18.20;93.80
4249;DHT22;8404;48.752;12.922;2022-09-09T08:51:00;18.20;93.50
4249;DHT22;8404;48.752;12.922;2022-09-09T08:53:39;18.30;93.40
4249;DHT22;8404;48.752;12.922;2022-09-09T08:56:12;18.40;93.40
4249;DHT22;8404;48.752;12.922;2022-09-09T08:58:52;18.50;93.00
4249;DHT22;8404;48.752;12.922;2022-09-09T09:01:42;18.60;92.90
4249;DHT22;8404;48.752;12.922;2022-09-09T09:04:47;18.70;92.70
4249;DHT22;8404;48.752;12.922;2022-09-09T09:07:32;18.80;92.80
4249;DHT22;8404;48.752;12.922;2022-09-09T09:10:11;18.80;91.50
4249;DHT22;8404;48.752;12.922;2022-09-09T09:13:03;18.80;91.60
4249;DHT22;8404;48.752;12.922;2022-09-09T09:15:36;18.90;91.80
4249;DHT22;8404;48.752;12.922;2022-09-09T09:18:09;18.90;91.80
4249;DHT22;8404;48.752;12.922;2022-09-09T09:20:47;18.90;90.60
4249;DHT22;8404;48.752;12.922;2022-09-09T09:23:22;18.70;89.80
4249;DHT22;8404;48.752;12.922;2022-09-09T09:25:58;18.70;88.60
4249;DHT22;8404;48.752;12.922;2022-09-09T09:28:31;18.50;89.70
4249;DHT22;8404;48.752;12.922;2022-09-09T09:31:09;18.40;90.80
4249;DHT22;8404;48.752;12.922;2022-09-09T09:33:47;18.30;90.50
4249;DHT22;8404;48.752;12.922;2022-09-09T09:36:19;18.30;91.10
4249;DHT22;8404;48.752;12.922;2022-09-09T09:38:53;18.20;91.50
4249;DHT22;8404;48.752;12.922;2022-09-09T09:42:30;18.30;91.40
4249;DHT22;8404;48.752;12.922;2022-09-09T09:45:08;18.40;91.60
4249;DHT22;8404;48.752;12.922;2022-09-09T09:47:37;18.50;91.80
4249;DHT22;8404;48.752;12.922;2022-09-09T09:50:19;18.60;91.80
4249;DHT22;8404;48.752;12.922;2022-09-09T09:52:56;18.70;91.50
4249;DHT22;8404;48.752;12.922;2022-09-09T09:55:28;18.80;91.40
4249;DHT22;8404;48.752;12.922;2022-09-09T09:58:02;18.90;91.30
4249;DHT22;8404;48.752;12.922;2022-09-09T10:00:32;19.10;91.40
4249;DHT22;8404;48.752;12.922;2022-09-09T10:03:19;19.20;91.40
4249;DHT22;8404;48.752;12.922;2022-09-09T10:05:50;19.30;91.10
4249;DHT22;8404;48.752;12.922;2022-09-09T10:08:20;19.40;90.80
4249;DHT22;8404;48.752;12.922;2022-09-09T10:10:58;19.40;90.60
4249;DHT22;8404;48.752;12.922;2022-09-09T10:13:36;19.50;89.80
4249;DHT22;8404;48.752;12.922;2022-09-09T10:16:17;19.60;90.30
4249;DHT22;8404;48.752;12.922;2022-09-09T10:18:58;19.70;88.20
4249;DHT22;8404;48.752;12.922;2022-09-09T10:22:02;19.70;89.10
4249;DHT22;8404;48.752;12.922;2022-09-09T10:27:45;19.70;89.50
4249;DHT22;8404;48.752;12.922;2022-09-09T10:30:28;19.60;89.00
4249;DHT22;8404;48.752;12.922;2022-09-09T10:33:07;19.50;89.50
4249;DHT22;8404;48.752;12.922;2022-09-09T10:35:42;19.40;89.70
4249;DHT22;8404;48.752;12.922;2022-09-09T10:38:16;19.30;90.00
4249;DHT22;8404;48.752;12.922;2022-09-09T10:41:13;19.30;90.10
4249;DHT22;8404;48.752;12.922;2022-09-09T10:44:15;19.20;90.30
4249;DHT22;8404;48.752;12.922;2022-09-09T10:46:56;19.20;90.40
4249;DHT22;8404;48.752;12.922;2022-09-09T10:49:43;19.10;90.20
4249;DHT22;8404;48.752;12.922;2022-09-09T10:52:21;19.00;90.10
4249;DHT22;8404;48.752;12.922;2022-09-09T10:54:56;19.00;90.40
4249;DHT22;8404;48.752;12.922;2022-09-09T10:57:31;19.10;90.10
4249;DHT22;8404;48.752;12.922;2022-09-09T11:00:04;19.00;90.00
4249;DHT22;8404;48.752;12.922;2022-09-09T11:02:36;19.10;89.80
4249;DHT22;8404;48.752;12.922;2022-09-09T11:05:12;19.00;89.60
4249;DHT22;8404;48.752;12.922;2022-09-09T11:07:46;19.00;90.10
4249;DHT22;8404;48.752;12.922;2022-09-09T11:10:21;19.00;90.30
4249;DHT22;8404;48.752;12.922;2022-09-09T11:12:57;18.90;90.20
4249;DHT22;8404;48.752;12.922;2022-09-09T11:15:34;18.90;90.20
4249;DHT22;8404;48.752;12.922;2022-09-09T11:18:04;18.80;90.30
4249;DHT22;8404;48.752;12.922;2022-09-09T11:20:34;18.80;90.50
4249;DHT22;8404;48.752;12.922;2022-09-09T11:23:05;18.80;90.60
4249;DHT22;8404;48.752;12.922;2022-09-09T11:25:40;18.80;90.50
4249;DHT22;8404;48.752;12.922;2022-09-09T11:28:28;18.80;90.70
4249;DHT22;8404;48.752;12.922;2022-09-09T11:31:13;18.80;90.60
4249;DHT22;8404;48.752;12.922;2022-09-09T11:34:02;18.80;90.60
4249;DHT22;8404;48.752;12.922;2022-09-09T11:36:43;18.80;90.70
4249;DHT22;8404;48.752;12.922;2022-09-09T11:39:56;18.80;90.70
4249;DHT22;8404;48.752;12.922;2022-09-09T11:42:28;18.80;90.70
4249;DHT22;8404;48.752;12.922;2022-09-09T11:44:57;18.80;90.70
4249;DHT22;8404;48.752;12.922;2022-09-09T11:47:36;18.80;90.70
4249;DHT22;8404;48.752;12.922;2022-09-09T11:50:10;18.80;90.80
4249;DHT22;8404;48.752;12.922;2022-09-09T11:52:40;18.80;90.80
4249;DHT22;8404;48.752;12.922;2022-09-09T11:55:25;18.80;90.80
4249;DHT22;8404;48.752;12.922;2022-09-09T11:57:58;18.80;90.90
4249;DHT22;8404;48.752;12.922;2022-09-09T12:00:37;18.80;90.80
4249;DHT22;8404;48.752;12.922;2022-09-09T12:03:32;18.80;90.80
4249;DHT22;8404;48.752;12.922;2022-09-09T12:06:11;18.80;90.60
4249;DHT22;8404;48.752;12.922;2022-09-09T12:08:43;18.70;90.50
4249;DHT22;8404;48.752;12.922;2022-09-09T12:11:24;18.70;90.60
4249;DHT22;8404;48.752;12.922;2022-09-09T12:13:53;18.60;90.70
4249;DHT22;8404;48.752;12.922;2022-09-09T12:16:31;18.50;90.80
4249;DHT22;8404;48.752;12.922;2022-09-09T12:19:14;18.50;90.90
4249;DHT22;8404;48.752;12.922;2022-09-09T12:21:49;18.50;90.90
4249;DHT22;8404;48.752;12.922;2022-09-09T12:24:25;18.50;90.90
4249;DHT22;8404;48.752;12.922;2022-09-09T12:26:56;18.50;91.00
4249;DHT22;8404;48.752;12.922;2022-09-09T12:29:30;18.50;91.00
4249;DHT22;8404;48.752;12.922;2022-09-09T12:32:07;18.50;91.00
4249;DHT22;8404;48.752;12.922;2022-09-09T12:34:41;18.60;90.90
4249;DHT22;8404;48.752;12.922;2022-09-09T12:37:17;18.60;90.90
4249;DHT22;8404;48.752;12.922;2022-09-09T12:39:53;18.70;90.80
4249;DHT22;8404;48.752;12.922;2022-09-09T12:42:23;18.80;90.80
4249;DHT22;8404;48.752;12.922;2022-09-09T12:44:52;18.90;90.70
4249;DHT22;8404;48.752;12.922;2022-09-09T12:47:25;19.00;90.70
4249;DHT22;8404;48.752;12.922;2022-09-09T12:49:57;19.20;90.50
4249;DHT22;8404;48.752;12.922;2022-09-09T12:52:28;19.30;90.30
4249;DHT22;8404;48.752;12.922;2022-09-09T12:55:00;19.40;90.30
4249;DHT22;8404;48.752;12.922;2022-09-09T12:57:36;19.60;89.90
4249;DHT22;8404;48.752;12.922;2022-09-09T13:00:07;19.70;89.10
4249;DHT22;8404;48.752;12.922;2022-09-09T13:02:47;19.90;89.30
4249;DHT22;8404;48.752;12.922;2022-09-09T13:05:19;20.10;88.80
4249;DHT22;8404;48.752;12.922;2022-09-09T13:07:48;20.20;88.40
4249;DHT22;8404;48.752;12.922;2022-09-09T13:10:24;20.30;88.00
4249;DHT22;8404;48.752;12.922;2022-09-09T13:13:14;20.40;87.70
4249;DHT22;8404;48.752;12.922;2022-09-09T13:15:50;20.40;87.80
4249;DHT22;8404;48.752;12.922;2022-09-09T13:18:22;20.50;87.90
4249;DHT22;8404;48.752;12.922;2022-09-09T13:20:51;20.70;87.60
4249;DHT22;8404;48.752;12.922;2022-09-09T13:23:20;20.80;87.70
4249;DHT22;8404;48.752;12.922;2022-09-09T13:25:53;20.90;86.90
4249;DHT22;8404;48.752;12.922;2022-09-09T13:28:23;21.40;86.70
4249;DHT22;8404;48.752;12.922;2022-09-09T13:30:59;22.20;83.80
4249;DHT22;8404;48.752;12.922;2022-09-09T13:33:32;22.90;80.00
4249;DHT22;8404;48.752;12.922;2022-09-09T13:36:03;23.70;78.80
4249;DHT22;8404;48.752;12.922;2022-09-09T13:38:35;24.50;75.30
4249;DHT22;8404;48.752;12.922;2022-09-09T13:41:06;25.40;73.00
4249;DHT22;8404;48.752;12.922;2022-09-09T13:43:37;26.30;69.80
4249;DHT22;8404;48.752;12.922;2022-09-09T13:46:25;27.30;67.70
4249;DHT22;8404;48.752;12.922;2022-09-09T13:48:56;28.10;64.00
4249;DHT22;8404;48.752;12.922;2022-09-09T13:51:32;28.80;61.70
4249;DHT22;8404;48.752;12.922;2022-09-09T13:54:00;29.40;62.30
4249;DHT22;8404;48.752;12.922;2022-09-09T13:56:28;29.80;60.40
4249;DHT22;8404;48.752;12.922;2022-09-09T13:58:56;30.30;59.40
4249;DHT22;8404;48.752;12.922;2022-09-09T14:01:25;30.70;58.70
4249;DHT22;8404;48.752;12.922;2022-09-09T14:03:57;30.80;57.50
4249;DHT22;8404;48.752;12.922;2022-09-09T14:06:25;31.20;53.40
4249;DHT22;8404;48.752;12.922;2022-09-09T14:08:54;31.50;53.30
4249;DHT22;8404;48.752;12.922;2022-09-09T14:11:22;31.50;52.30
4249;DHT22;8404;48.752;12.922;2022-09-09T14:13:50;31.70;53.80
4249;DHT22;8404;48.752;12.922;2022-09-09T14:16:18;31.80;52.00
4249;DHT22;8404;48.752;12.922;2022-09-09T14:18:47;31.30;53.50
4249;DHT22;8404;48.752;12.922;2022-09-09T14:21:17;30.70;54.00
4249;DHT22;8404;48.752;12.922;2022-09-09T14:23:45;30.90;54.20
4249;DHT22;8404;48.752;12.922;2022-09-09T14:26:13;31.30;53.30
4249;DHT22;8404;48.752;12.922;2022-09-09T14:28:41;31.50;52.60
4249;DHT22;8404;48.752;12.922;2022-09-09T14:31:25;31.80;53.30
4249;DHT22;8404;48.752;12.922;2022-09-09T14:33:53;32.20;50.10
4249;DHT22;8404;48.752;12.922;2022-09-09T14:36:23;32.50;51.10
4249;DHT22;8404;48.752;12.922;2022-09-09T14:38:51;32.60;50.80
4249;DHT22;8404;48.752;12.922;2022-09-09T14:41:20;32.60;49.40
4249;DHT22;8404;48.752;12.922;2022-09-09T14:43:49;32.10;46.90
4249;DHT22;8404;48.752;12.922;2022-09-09T14:46:19;31.70;47.50
4249;DHT22;8404;48.752;12.922;2022-09-09T14:48:47;31.10;48.80
4249;DHT22;8404;48.752;12.922;2022-09-09T14:51:18;30.70;50.10
4249;DHT22;8404;48.752;12.922;2022-09-09T14:53:51;30.70;50.50
4249;DHT22;8404;48.752;12.922;2022-09-09T14:56:22;30.80;49.50
4249;DHT22;8404;48.752;12.922;2022-09-09T14:58:53;30.80;49.50
4249;DHT22;8404;48.752;12.922;2022-09-09T15:01:22;30.60;47.30
4249;DHT22;8404;48.752;12.922;2022-09-09T15:03:55;30.30;48.20
4249;DHT22;8404;48.752;12.922;2022-09-09T15:06:25;30.20;49.10
4249;DHT22;8404;48.752;12.922;2022-09-09T15:08:56;30.30;49.80
4249;DHT22;8404;48.752;12.922;2022-09-09T15:11:26;30.50;49.70
4249;DHT22;8404;48.752;12.922;2022-09-09T15:13:54;30.50;49.80
4249;DHT22;8404;48.752;12.922;2022-09-09T15:16:25;30.50;49.20
4249;DHT22;8404;48.752;12.922;2022-09-09T15:18:55;30.10;49.70
4249;DHT22;8404;48.752;12.922;2022-09-09T15:21:26;29.40;49.30
4249;DHT22;8404;48.752;12.922;2022-09-09T15:23:56;28.80;50.10
4249;DHT22;8404;48.752;12.922;2022-09-09T15:26:25;28.60;51.10
4249;DHT22;8404;48.752;12.922;2022-09-09T15:28:54;28.50;50.90
4249;DHT22;8404;48.752;12.922;2022-09-09T15:31:24;28.20;51.60
4249;DHT22;8404;48.752;12.922;2022-09-09T15:33:54;28.10;52.00
4249;DHT22;8404;48.752;12.922;2022-09-09T15:36:28;28.20;52.30
4249;DHT22;8404;48.752;12.922;2022-09-09T15:38:58;28.20;52.10
4249;DHT22;8404;48.752;12.922;2022-09-09T15:41:28;28.20;52.10
4249;DHT22;8404;48.752;12.922;2022-09-09T15:43:57;28.20;52.30
4249;DHT22;8404;48.752;12.922;2022-09-09T15:46:28;27.90;51.20
4249;DHT22;8404;48.752;12.922;2022-09-09T15:48:58;27.50;52.20
4249;DHT22;8404;48.752;12.922;2022-09-09T15:51:26;27.10;52.80
4249;DHT22;8404;48.752;12.922;2022-09-09T15:54:11;26.80;53.50
4249;DHT22;8404;48.752;12.922;2022-09-09T15:56:40;26.40;54.10
4249;DHT22;8404;48.752;12.922;2022-09-09T15:59:09;26.20;54.60
4249;DHT22;8404;48.752;12.922;2022-09-09T16:01:38;26.00;54.90
4249;DHT22;8404;48.752;12.922;2022-09-09T16:04:08;25.80;55.90
4249;DHT22;8404;48.752;12.922;2022-09-09T16:06:36;25.90;56.20
4249;DHT22;8404;48.752;12.922;2022-09-09T16:09:05;26.10;56.10
4249;DHT22;8404;48.752;12.922;2022-09-09T16:11:37;26.20;55.90
4249;DHT22;8404;48.752;12.922;2022-09-09T16:14:06;26.10;55.60
4249;DHT22;8404;48.752;12.922;2022-09-09T16:16:34;25.70;55.80
4249;DHT22;8404;48.752;12.922;2022-09-09T16:19:05;25.40;56.50
4249;DHT22;8404;48.752;12.922;2022-09-09T16:21:35;25.10;56.80
4249;DHT22;8404;48.752;12.922;2022-09-09T16:24:07;24.70;57.20
4249;DHT22;8404;48.752;12.922;2022-09-09T16:26:38;24.40;57.80
4249;DHT22;8404;48.752;12.922;2022-09-09T16:29:07;24.10;58.40